Juda, Wisconsin
Current Conditions -  °F | °C
As of 9:55 PM on Friday 24 Oct 2014 (Local Time) from KEFT Reporting Station
Overcast Overcast  
Wind Chill: 55°   Ceiling: 1800
Heat Index: 55°   Visibility: 10mi
Dew Point: 50°   Wind: 9mph
Humidity: 82%   Direction: 220°SW
Pressure: 29.92"   Gusts: NA
Location:  42.59°N, 89.5°W
Report Text: KEFT 250255Z AUTO 22008KT 10SM BKN018 OVC022 13/10 A2992 RMK AO2
Loading
Personal Weather Stations






























Interactive Weather Map
Tropical Storm Tracking
New forecast layout! Learn more

10-Day Weather Forecast

Advertisements
Track Severe Weather on mobile